sensor_id;sensor_type;location;lat;lon;timestamp;pressure;altitude;pressure_sealevel;temperature;humidity
68508;BME280;55510;49.560;19.090;2023-02-11T00:00:11;98115.88;;;-10.51;91.12
68508;BME280;55510;49.560;19.090;2023-02-11T00:03:32;98115.38;;;-10.59;90.87
68508;BME280;55510;49.560;19.090;2023-02-11T00:06:34;98118.75;;;-10.78;91.15
68508;BME280;55510;49.560;19.090;2023-02-11T00:09:36;98123.44;;;-10.88;90.94
68508;BME280;55510;49.560;19.090;2023-02-11T00:12:37;98121.59;;;-10.84;91.41
68508;BME280;55510;49.560;19.090;2023-02-11T00:15:38;98129.44;;;-10.87;91.31
68508;BME280;55510;49.560;19.090;2023-02-11T00:18:38;98130.66;;;-10.96;91.19
68508;BME280;55510;49.560;19.090;2023-02-11T00:21:39;98138.81;;;-10.86;91.51
68508;BME280;55510;49.560;19.090;2023-02-11T00:24:40;98137.94;;;-10.85;91.39
68508;BME280;55510;49.560;19.090;2023-02-11T00:27:40;98137.78;;;-10.82;91.21
68508;BME280;55510;49.560;19.090;2023-02-11T00:30:41;98141.75;;;-10.75;91.08
68508;BME280;55510;49.560;19.090;2023-02-11T00:33:42;98135.84;;;-10.77;90.50
68508;BME280;55510;49.560;19.090;2023-02-11T00:36:43;98133.28;;;-10.77;90.28
68508;BME280;55510;49.560;19.090;2023-02-11T00:39:44;98129.31;;;-10.84;90.30
68508;BME280;55510;49.560;19.090;2023-02-11T00:42:45;98124.69;;;-10.97;90.02
68508;BME280;55510;49.560;19.090;2023-02-11T00:45:45;98125.00;;;-11.04;90.21
68508;BME280;55510;49.560;19.090;2023-02-11T00:48:46;98117.97;;;-11.20;89.89
68508;BME280;55510;49.560;19.090;2023-02-11T00:51:47;98111.59;;;-11.32;89.69
68508;BME280;55510;49.560;19.090;2023-02-11T00:54:48;98105.59;;;-11.32;90.49
68508;BME280;55510;49.560;19.090;2023-02-11T00:57:48;98100.16;;;-11.25;90.79
68508;BME280;55510;49.560;19.090;2023-02-11T01:00:49;98093.06;;;-11.19;91.14
68508;BME280;55510;49.560;19.090;2023-02-11T01:03:50;98099.34;;;-11.06;91.26
68508;BME280;55510;49.560;19.090;2023-02-11T01:06:51;98095.78;;;-11.02;91.33
68508;BME280;55510;49.560;19.090;2023-02-11T01:09:52;98086.88;;;-10.95;91.36
68508;BME280;55510;49.560;19.090;2023-02-11T01:12:53;98089.47;;;-10.95;91.68
68508;BME280;55510;49.560;19.090;2023-02-11T01:15:55;98086.75;;;-11.12;91.03
68508;BME280;55510;49.560;19.090;2023-02-11T01:18:55;98082.38;;;-11.10;91.05
68508;BME280;55510;49.560;19.090;2023-02-11T01:21:58;98074.09;;;-10.96;91.48
68508;BME280;55510;49.560;19.090;2023-02-11T01:24:59;98053.19;;;-10.88;91.05
68508;BME280;55510;49.560;19.090;2023-02-11T01:28:00;98049.97;;;-10.94;90.57
68508;BME280;55510;49.560;19.090;2023-02-11T01:31:01;98044.06;;;-10.96;90.27
68508;BME280;55510;49.560;19.090;2023-02-11T01:34:02;98027.13;;;-11.00;90.34
68508;BME280;55510;49.560;19.090;2023-02-11T01:37:03;98023.81;;;-11.03;90.65
68508;BME280;55510;49.560;19.090;2023-02-11T01:40:06;98022.94;;;-11.02;90.47
68508;BME280;55510;49.560;19.090;2023-02-11T01:43:09;98024.53;;;-11.00;90.60
68508;BME280;55510;49.560;19.090;2023-02-11T01:46:30;98020.69;;;-11.10;90.50
68508;BME280;55510;49.560;19.090;2023-02-11T01:49:55;98010.81;;;-11.19;90.26
68508;BME280;55510;49.560;19.090;2023-02-11T01:52:56;98003.72;;;-11.14;90.67
68508;BME280;55510;49.560;19.090;2023-02-11T01:56:19;97996.78;;;-11.12;90.71
68508;BME280;55510;49.560;19.090;2023-02-11T02:03:01;97986.34;;;-11.28;91.16
68508;BME280;55510;49.560;19.090;2023-02-11T02:06:15;97978.69;;;-11.30;91.47
68508;BME280;55510;49.560;19.090;2023-02-11T02:09:27;97967.88;;;-11.17;91.78
68508;BME280;55510;49.560;19.090;2023-02-11T02:12:29;97960.16;;;-10.98;91.96
68508;BME280;55510;49.560;19.090;2023-02-11T02:15:35;97960.41;;;-11.03;91.82
68508;BME280;55510;49.560;19.090;2023-02-11T02:18:47;97962.06;;;-11.02;91.90
68508;BME280;55510;49.560;19.090;2023-02-11T02:22:11;97970.25;;;-11.13;91.24
68508;BME280;55510;49.560;19.090;2023-02-11T02:35:38;97957.81;;;-11.03;93.14
68508;BME280;55510;49.560;19.090;2023-02-11T02:41:46;97935.97;;;-11.13;91.29
68508;BME280;55510;49.560;19.090;2023-02-11T02:44:49;97947.09;;;-11.32;90.83
68508;BME280;55510;49.560;19.090;2023-02-11T02:47:50;97948.41;;;-11.42;91.16
68508;BME280;55510;49.560;19.090;2023-02-11T02:50:55;97950.69;;;-11.36;92.08
68508;BME280;55510;49.560;19.090;2023-02-11T02:57:31;97944.94;;;-11.41;92.10
68508;BME280;55510;49.560;19.090;2023-02-11T03:00:45;97931.13;;;-11.19;92.63
68508;BME280;55510;49.560;19.090;2023-02-11T03:07:04;97934.09;;;-10.90;93.88
68508;BME280;55510;49.560;19.090;2023-02-11T03:10:16;97930.63;;;-10.89;93.01
68508;BME280;55510;49.560;19.090;2023-02-11T03:13:26;97941.81;;;-10.90;92.90
68508;BME280;55510;49.560;19.090;2023-02-11T03:16:28;97937.78;;;-10.77;93.75
68508;BME280;55510;49.560;19.090;2023-02-11T03:19:34;97937.44;;;-10.69;93.62
68508;BME280;55510;49.560;19.090;2023-02-11T03:22:48;97943.53;;;-10.72;93.13
68508;BME280;55510;49.560;19.090;2023-02-11T03:26:08;97937.28;;;-10.66;93.07
68508;BME280;55510;49.560;19.090;2023-02-11T03:32:38;97921.09;;;-10.51;93.66
68508;BME280;55510;49.560;19.090;2023-02-11T03:35:45;97912.69;;;-10.37;93.57
68508;BME280;55510;49.560;19.090;2023-02-11T03:38:52;97906.50;;;-10.15;93.64
68508;BME280;55510;49.560;19.090;2023-02-11T03:41:56;97889.59;;;-10.03;93.56
68508;BME280;55510;49.560;19.090;2023-02-11T03:45:07;97877.84;;;-9.91;92.91
68508;BME280;55510;49.560;19.090;2023-02-11T03:48:17;97867.81;;;-9.80;93.01
68508;BME280;55510;49.560;19.090;2023-02-11T03:51:20;97876.00;;;-9.71;93.50
68508;BME280;55510;49.560;19.090;2023-02-11T03:54:26;97870.69;;;-9.68;93.24
68508;BME280;55510;49.560;19.090;2023-02-11T03:57:29;97860.97;;;-9.63;93.25
68508;BME280;55510;49.560;19.090;2023-02-11T04:00:31;97864.13;;;-9.58;93.21
68508;BME280;55510;49.560;19.090;2023-02-11T04:03:31;97858.31;;;-9.45;92.42
68508;BME280;55510;49.560;19.090;2023-02-11T04:06:32;97853.69;;;-9.39;92.95
68508;BME280;55510;49.560;19.090;2023-02-11T04:09:33;97842.78;;;-9.28;92.68
68508;BME280;55510;49.560;19.090;2023-02-11T04:12:35;97838.69;;;-9.16;92.46
68508;BME280;55510;49.560;19.090;2023-02-11T04:15:36;97843.44;;;-9.08;92.84
68508;BME280;55510;49.560;19.090;2023-02-11T04:18:37;97831.28;;;-9.06;92.38
68508;BME280;55510;49.560;19.090;2023-02-11T04:21:37;97826.88;;;-9.04;92.62
68508;BME280;55510;49.560;19.090;2023-02-11T04:24:38;97833.34;;;-8.97;92.36
68508;BME280;55510;49.560;19.090;2023-02-11T04:27:39;97837.75;;;-8.83;92.80
68508;BME280;55510;49.560;19.090;2023-02-11T04:30:39;97831.09;;;-8.71;93.39
68508;BME280;55510;49.560;19.090;2023-02-11T04:33:40;97821.53;;;-8.54;93.44
68508;BME280;55510;49.560;19.090;2023-02-11T04:36:41;97808.19;;;-8.32;93.72
68508;BME280;55510;49.560;19.090;2023-02-11T04:39:42;97808.75;;;-8.27;93.41
68508;BME280;55510;49.560;19.090;2023-02-11T04:42:43;97802.97;;;-8.16;93.45
68508;BME280;55510;49.560;19.090;2023-02-11T04:45:44;97802.03;;;-8.01;93.60
68508;BME280;55510;49.560;19.090;2023-02-11T04:48:44;97798.19;;;-7.93;93.72
68508;BME280;55510;49.560;19.090;2023-02-11T04:51:45;97795.50;;;-7.92;93.33
68508;BME280;55510;49.560;19.090;2023-02-11T04:54:46;97783.78;;;-7.83;93.68
68508;BME280;55510;49.560;19.090;2023-02-11T04:57:46;97783.03;;;-7.70;93.71
68508;BME280;55510;49.560;19.090;2023-02-11T05:00:47;97780.25;;;-7.67;93.08
68508;BME280;55510;49.560;19.090;2023-02-11T05:03:48;97785.59;;;-7.70;92.64
68508;BME280;55510;49.560;19.090;2023-02-11T05:06:49;97777.38;;;-7.77;92.31
68508;BME280;55510;49.560;19.090;2023-02-11T05:09:49;97774.72;;;-7.76;92.48
68508;BME280;55510;49.560;19.090;2023-02-11T05:12:50;97767.50;;;-7.70;92.41
68508;BME280;55510;49.560;19.090;2023-02-11T05:15:51;97762.88;;;-7.65;92.24
68508;BME280;55510;49.560;19.090;2023-02-11T05:18:52;97757.63;;;-7.64;92.49
68508;BME280;55510;49.560;19.090;2023-02-11T05:21:55;97758.75;;;-7.68;92.19
68508;BME280;55510;49.560;19.090;2023-02-11T05:24:55;97754.03;;;-7.76;92.53
68508;BME280;55510;49.560;19.090;2023-02-11T05:27:56;97757.81;;;-7.81;92.50
68508;BME280;55510;49.560;19.090;2023-02-11T05:30:57;97767.44;;;-7.83;92.54
68508;BME280;55510;49.560;19.090;2023-02-11T05:33:58;97771.41;;;-7.78;93.18
68508;BME280;55510;49.560;19.090;2023-02-11T05:36:58;97772.13;;;-7.76;93.51
68508;BME280;55510;49.560;19.090;2023-02-11T05:39:59;97779.94;;;-7.48;94.61
68508;BME280;55510;49.560;19.090;2023-02-11T05:42:59;97773.59;;;-7.15;95.45
68508;BME280;55510;49.560;19.090;2023-02-11T05:46:04;97770.50;;;-6.80;96.59
68508;BME280;55510;49.560;19.090;2023-02-11T05:49:04;97775.63;;;-6.52;96.62
68508;BME280;55510;49.560;19.090;2023-02-11T05:52:05;97775.44;;;-6.36;95.82
68508;BME280;55510;49.560;19.090;2023-02-11T05:55:06;97774.06;;;-6.03;96.40
68508;BME280;55510;49.560;19.090;2023-02-11T05:58:07;97770.31;;;-5.99;94.57
68508;BME280;55510;49.560;19.090;2023-02-11T06:01:07;97770.13;;;-5.96;94.51
68508;BME280;55510;49.560;19.090;2023-02-11T06:04:08;97762.81;;;-5.78;94.63
68508;BME280;55510;49.560;19.090;2023-02-11T06:07:09;97758.16;;;-5.35;95.40
68508;BME280;55510;49.560;19.090;2023-02-11T06:10:10;97763.03;;;-5.31;93.61
68508;BME280;55510;49.560;19.090;2023-02-11T06:13:11;97766.50;;;-5.19;93.85
68508;BME280;55510;49.560;19.090;2023-02-11T06:16:11;97757.72;;;-4.81;94.17
68508;BME280;55510;49.560;19.090;2023-02-11T06:19:12;97737.47;;;-4.53;93.92
68508;BME280;55510;49.560;19.090;2023-02-11T06:22:13;97743.91;;;-4.23;92.52
68508;BME280;55510;49.560;19.090;2023-02-11T06:25:13;97766.13;;;-4.30;90.14
68508;BME280;55510;49.560;19.090;2023-02-11T06:28:14;97751.00;;;-4.36;90.00
68508;BME280;55510;49.560;19.090;2023-02-11T06:31:15;97742.13;;;-4.33;89.86
68508;BME280;55510;49.560;19.090;2023-02-11T06:34:16;97749.59;;;-4.29;89.91
68508;BME280;55510;49.560;19.090;2023-02-11T06:37:17;97765.09;;;-4.16;91.20
68508;BME280;55510;49.560;19.090;2023-02-11T06:40:18;97766.84;;;-4.05;90.68
68508;BME280;55510;49.560;19.090;2023-02-11T06:43:19;97767.13;;;-3.97;90.10
68508;BME280;55510;49.560;19.090;2023-02-11T06:46:20;97761.69;;;-3.94;89.76
68508;BME280;55510;49.560;19.090;2023-02-11T06:49:21;97760.84;;;-3.83;89.40
68508;BME280;55510;49.560;19.090;2023-02-11T06:52:22;97760.59;;;-3.80;88.95
68508;BME280;55510;49.560;19.090;2023-02-11T06:55:22;97766.16;;;-3.73;89.04
68508;BME280;55510;49.560;19.090;2023-02-11T06:58:23;97766.16;;;-3.61;88.96
68508;BME280;55510;49.560;19.090;2023-02-11T07:01:25;97762.34;;;-3.57;88.29
68508;BME280;55510;49.560;19.090;2023-02-11T07:04:26;97766.88;;;-3.48;88.29
68508;BME280;55510;49.560;19.090;2023-02-11T07:07:26;97766.59;;;-3.33;88.18
68508;BME280;55510;49.560;19.090;2023-02-11T07:10:28;97758.91;;;-3.35;87.14
68508;BME280;55510;49.560;19.090;2023-02-11T07:13:29;97751.19;;;-3.25;87.39
68508;BME280;55510;49.560;19.090;2023-02-11T07:16:30;97749.75;;;-3.18;86.75
68508;BME280;55510;49.560;19.090;2023-02-11T07:19:31;97734.91;;;-3.06;86.88
68508;BME280;55510;49.560;19.090;2023-02-11T07:22:33;97734.50;;;-2.90;86.25
68508;BME280;55510;49.560;19.090;2023-02-11T07:25:34;97745.75;;;-2.89;85.10
68508;BME280;55510;49.560;19.090;2023-02-11T07:28:36;97734.59;;;-2.80;86.02
68508;BME280;55510;49.560;19.090;2023-02-11T07:31:37;97739.75;;;-2.69;85.54
68508;BME280;55510;49.560;19.090;2023-02-11T07:34:38;97739.13;;;-2.61;85.07
68508;BME280;55510;49.560;19.090;2023-02-11T07:37:39;97741.34;;;-2.56;84.62
68508;BME280;55510;49.560;19.090;2023-02-11T07:40:41;97732.13;;;-2.39;83.59
68508;BME280;55510;49.560;19.090;2023-02-11T07:43:42;97738.78;;;-2.25;83.65
68508;BME280;55510;49.560;19.090;2023-02-11T07:46:43;97750.69;;;-2.11;82.59
68508;BME280;55510;49.560;19.090;2023-02-11T07:49:44;97735.72;;;-2.09;81.81
68508;BME280;55510;49.560;19.090;2023-02-11T07:52:45;97750.41;;;-2.08;81.45
68508;BME280;55510;49.560;19.090;2023-02-11T07:55:46;97764.91;;;-1.94;81.18
68508;BME280;55510;49.560;19.090;2023-02-11T07:58:47;97750.41;;;-1.77;81.32
68508;BME280;55510;49.560;19.090;2023-02-11T08:01:48;97725.81;;;-1.24;80.38
68508;BME280;55510;49.560;19.090;2023-02-11T08:04:50;97731.84;;;-0.35;77.64
68508;BME280;55510;49.560;19.090;2023-02-11T08:07:52;97727.19;;;0.07;74.76
68508;BME280;55510;49.560;19.090;2023-02-11T08:10:53;97727.72;;;0.48;73.09
68508;BME280;55510;49.560;19.090;2023-02-11T08:13:55;97731.84;;;1.15;70.20
68508;BME280;55510;49.560;19.090;2023-02-11T08:16:56;97726.63;;;1.59;67.44
68508;BME280;55510;49.560;19.090;2023-02-11T08:19:56;97721.78;;;2.26;63.92
68508;BME280;55510;49.560;19.090;2023-02-11T08:22:57;97733.97;;;2.43;63.98
68508;BME280;55510;49.560;19.090;2023-02-11T08:26:02;97723.72;;;1.97;63.03
68508;BME280;55510;49.560;19.090;2023-02-11T08:29:07;97727.66;;;1.67;62.45
68508;BME280;55510;49.560;19.090;2023-02-11T08:32:08;97728.31;;;2.22;62.14
68508;BME280;55510;49.560;19.090;2023-02-11T08:35:09;97727.00;;;2.69;58.46
68508;BME280;55510;49.560;19.090;2023-02-11T08:38:11;97744.53;;;2.17;60.04
68508;BME280;55510;49.560;19.090;2023-02-11T08:41:13;97750.72;;;1.55;62.67
68508;BME280;55510;49.560;19.090;2023-02-11T08:44:17;97735.34;;;1.42;61.91
68508;BME280;55510;49.560;19.090;2023-02-11T08:47:21;97742.13;;;1.53;63.79
68508;BME280;55510;49.560;19.090;2023-02-11T08:50:22;97731.44;;;4.97;57.22
68508;BME280;55510;49.560;19.090;2023-02-11T08:53:23;97726.88;;;8.18;46.21
68508;BME280;55510;49.560;19.090;2023-02-11T08:56:24;97732.75;;;7.85;44.75
68508;BME280;55510;49.560;19.090;2023-02-11T08:59:25;97728.31;;;9.25;41.97
68508;BME280;55510;49.560;19.090;2023-02-11T09:02:26;97732.53;;;11.96;38.08
68508;BME280;55510;49.560;19.090;2023-02-11T09:05:26;97741.66;;;12.32;33.58
68508;BME280;55510;49.560;19.090;2023-02-11T09:08:27;97743.28;;;12.52;33.24
68508;BME280;55510;49.560;19.090;2023-02-11T09:11:31;97745.44;;;11.73;33.27
68508;BME280;55510;49.560;19.090;2023-02-11T09:14:32;97747.75;;;8.35;39.61
68508;BME280;55510;49.560;19.090;2023-02-11T09:17:33;97729.47;;;5.99;44.31
68508;BME280;55510;49.560;19.090;2023-02-11T09:20:34;97739.38;;;4.66;48.20
68508;BME280;55510;49.560;19.090;2023-02-11T09:23:35;97737.63;;;3.68;51.36
68508;BME280;55510;49.560;19.090;2023-02-11T09:26:36;97736.81;;;3.10;53.61
68508;BME280;55510;49.560;19.090;2023-02-11T09:29:37;97735.84;;;2.59;55.96
68508;BME280;55510;49.560;19.090;2023-02-11T09:32:38;97730.22;;;2.11;57.64
68508;BME280;55510;49.560;19.090;2023-02-11T09:35:41;97714.47;;;2.11;58.75
68508;BME280;55510;49.560;19.090;2023-02-11T09:38:42;97715.75;;;3.68;56.96
68508;BME280;55510;49.560;19.090;2023-02-11T09:45:12;97714.31;;;5.40;49.57
68508;BME280;55510;49.560;19.090;2023-02-11T09:48:17;97710.72;;;6.24;48.20
68508;BME280;55510;49.560;19.090;2023-02-11T09:51:47;97706.25;;;7.85;43.19
68508;BME280;55510;49.560;19.090;2023-02-11T09:54:58;97714.63;;;8.17;42.03
68508;BME280;55510;49.560;19.090;2023-02-11T09:58:03;97709.66;;;8.07;41.67
68508;BME280;55510;49.560;19.090;2023-02-11T10:08:22;97698.19;;;8.35;40.98
68508;BME280;55510;49.560;19.090;2023-02-11T10:18:49;97704.81;;;4.04;50.24
68508;BME280;55510;49.560;19.090;2023-02-11T10:24:58;97713.41;;;2.98;55.34
68508;BME280;55510;49.560;19.090;2023-02-11T10:28:12;97720.56;;;2.63;58.10
68508;BME280;55510;49.560;19.090;2023-02-11T10:31:19;97716.69;;;2.32;58.52
68508;BME280;55510;49.560;19.090;2023-02-11T10:34:20;97695.69;;;1.98;60.33
68508;BME280;55510;49.560;19.090;2023-02-11T10:37:21;97678.31;;;2.05;61.38
68508;BME280;55510;49.560;19.090;2023-02-11T10:40:25;97675.56;;;2.07;60.54
68508;BME280;55510;49.560;19.090;2023-02-11T10:43:27;97661.56;;;1.98;60.47
68508;BME280;55510;49.560;19.090;2023-02-11T10:46:32;97631.69;;;1.99;60.81
68508;BME280;55510;49.560;19.090;2023-02-11T10:49:41;97641.25;;;2.16;60.85
68508;BME280;55510;49.560;19.090;2023-02-11T10:52:42;97650.19;;;2.24;60.10
68508;BME280;55510;49.560;19.090;2023-02-11T10:55:52;97646.13;;;1.95;62.11
68508;BME280;55510;49.560;19.090;2023-02-11T10:58:57;97638.16;;;2.13;62.75
68508;BME280;55510;49.560;19.090;2023-02-11T11:02:04;97619.28;;;2.17;61.99
68508;BME280;55510;49.560;19.090;2023-02-11T11:05:18;97621.44;;;2.22;61.64
68508;BME280;55510;49.560;19.090;2023-02-11T11:08:19;97603.56;;;2.34;60.57
68508;BME280;55510;49.560;19.090;2023-02-11T11:11:23;97609.81;;;2.41;60.54
68508;BME280;55510;49.560;19.090;2023-02-11T11:14:25;97606.88;;;2.61;60.23
68508;BME280;55510;49.560;19.090;2023-02-11T11:17:28;97598.53;;;2.66;60.34
68508;BME280;55510;49.560;19.090;2023-02-11T11:20:29;97588.19;;;2.72;59.03
68508;BME280;55510;49.560;19.090;2023-02-11T11:23:35;97578.31;;;2.50;59.69
68508;BME280;55510;49.560;19.090;2023-02-11T11:26:42;97561.91;;;2.72;59.33
68508;BME280;55510;49.560;19.090;2023-02-11T11:29:50;97558.94;;;2.84;59.48
68508;BME280;55510;49.560;19.090;2023-02-11T11:32:53;97545.19;;;3.86;56.19
68508;BME280;55510;49.560;19.090;2023-02-11T11:36:15;97532.09;;;4.94;53.73
68508;BME280;55510;49.560;19.090;2023-02-11T11:39:25;97522.34;;;7.09;48.57
68508;BME280;55510;49.560;19.090;2023-02-11T11:42:29;97526.69;;;8.76;44.29
68508;BME280;55510;49.560;19.090;2023-02-11T11:45:30;97535.28;;;9.91;39.55
68508;BME280;55510;49.560;19.090;2023-02-11T11:48:37;97536.94;;;10.70;38.80
68508;BME280;55510;49.560;19.090;2023-02-11T11:51:40;97528.22;;;10.56;37.06
68508;BME280;55510;49.560;19.090;2023-02-11T11:54:46;97528.72;;;10.39;37.92
68508;BME280;55510;49.560;19.090;2023-02-11T11:57:50;97527.38;;;9.78;39.08
68508;BME280;55510;49.560;19.090;2023-02-11T12:01:14;97536.34;;;10.68;36.81
68508;BME280;55510;49.560;19.090;2023-02-11T12:04:26;97528.53;;;10.73;37.86
68508;BME280;55510;49.560;19.090;2023-02-11T12:13:50;97539.31;;;9.35;39.11
68508;BME280;55510;49.560;19.090;2023-02-11T12:30:02;97580.00;;;3.65;54.58
68508;BME280;55510;49.560;19.090;2023-02-11T12:40:26;97581.72;;;2.34;60.44
68508;BME280;55510;49.560;19.090;2023-02-11T12:43:40;97573.72;;;1.92;62.85
68508;BME280;55510;49.560;19.090;2023-02-11T12:46:49;97569.69;;;1.63;63.40
68508;BME280;55510;49.560;19.090;2023-02-11T13:00:18;97584.31;;;1.13;66.81
68508;BME280;55510;49.560;19.090;2023-02-11T13:03:30;97602.94;;;1.01;67.67
68508;BME280;55510;49.560;19.090;2023-02-11T13:06:42;97610.34;;;0.88;68.51
68508;BME280;55510;49.560;19.090;2023-02-11T13:09:57;97576.44;;;0.86;68.58
68508;BME280;55510;49.560;19.090;2023-02-11T13:13:02;97580.63;;;0.97;68.99
68508;BME280;55510;49.560;19.090;2023-02-11T13:19:32;97556.09;;;1.07;69.08
68508;BME280;55510;49.560;19.090;2023-02-11T13:22:53;97541.75;;;1.19;68.99
68508;BME280;55510;49.560;19.090;2023-02-11T13:26:04;97546.38;;;1.25;68.65
68508;BME280;55510;49.560;19.090;2023-02-11T13:29:25;97543.28;;;1.30;69.33
68508;BME280;55510;49.560;19.090;2023-02-11T13:36:14;97533.13;;;1.27;68.69
68508;BME280;55510;49.560;19.090;2023-02-11T13:39:21;97533.44;;;1.24;69.55
68508;BME280;55510;49.560;19.090;2023-02-11T13:42:22;97527.16;;;1.17;69.69
68508;BME280;55510;49.560;19.090;2023-02-11T13:48:30;97506.84;;;1.19;70.30
68508;BME280;55510;49.560;19.090;2023-02-11T13:51:36;97509.94;;;1.14;70.95
68508;BME280;55510;49.560;19.090;2023-02-11T13:54:46;97500.88;;;1.08;71.19
68508;BME280;55510;49.560;19.090;2023-02-11T14:01:06;97484.00;;;1.03;71.59
68508;BME280;55510;49.560;19.090;2023-02-11T14:04:23;97532.59;;;0.97;72.20
68508;BME280;55510;49.560;19.090;2023-02-11T14:14:32;97505.75;;;0.77;74.01
68508;BME280;55510;49.560;19.090;2023-02-11T14:17:35;97491.69;;;0.78;74.30
68508;BME280;55510;49.560;19.090;2023-02-11T14:20:39;97505.47;;;0.80;74.85
68508;BME280;55510;49.560;19.090;2023-02-11T14:23:44;97493.81;;;0.74;74.78
68508;BME280;55510;49.560;19.090;2023-02-11T14:26:53;97489.31;;;0.66;75.80
68508;BME280;55510;49.560;19.090;2023-02-11T14:33:37;97439.75;;;0.73;75.51
68508;BME280;55510;49.560;19.090;2023-02-11T14:40:38;97464.34;;;0.54;77.26
68508;BME280;55510;49.560;19.090;2023-02-11T14:44:03;97474.53;;;0.57;77.11
68508;BME280;55510;49.560;19.090;2023-02-11T14:47:04;97483.00;;;0.51;77.37
68508;BME280;55510;49.560;19.090;2023-02-11T14:50:13;97478.28;;;0.36;78.12
68508;BME280;55510;49.560;19.090;2023-02-11T14:53:18;97470.31;;;0.20;79.42
68508;BME280;55510;49.560;19.090;2023-02-11T14:56:24;97465.22;;;0.18;79.57
68508;BME280;55510;49.560;19.090;2023-02-11T14:59:25;97481.38;;;0.13;80.38
68508;BME280;55510;49.560;19.090;2023-02-11T15:02:34;97493.81;;;0.11;80.70
68508;BME280;55510;49.560;19.090;2023-02-11T15:05:35;97512.44;;;0.08;81.19
68508;BME280;55510;49.560;19.090;2023-02-11T15:08:36;97504.19;;;0.03;81.53
68508;BME280;55510;49.560;19.090;2023-02-11T15:11:43;97490.44;;;0.01;82.08
68508;BME280;55510;49.560;19.090;2023-02-11T15:14:47;97506.72;;;-0.05;82.18
68508;BME280;55510;49.560;19.090;2023-02-11T15:17:49;97513.88;;;-0.07;82.85
68508;BME280;55510;49.560;19.090;2023-02-11T15:20:50;97516.66;;;-0.09;83.00
68508;BME280;55510;49.560;19.090;2023-02-11T15:23:59;97526.31;;;-0.09;83.57
68508;BME280;55510;49.560;19.090;2023-02-11T15:27:11;97518.59;;;-0.11;84.49
68508;BME280;55510;49.560;19.090;2023-02-11T15:33:22;97511.41;;;-0.27;86.22
68508;BME280;55510;49.560;19.090;2023-02-11T15:36:24;97509.50;;;-0.35;87.43
68508;BME280;55510;49.560;19.090;2023-02-11T15:39:35;97511.44;;;-0.37;87.91
68508;BME280;55510;49.560;19.090;2023-02-11T15:42:36;97511.38;;;-0.45;89.20
68508;BME280;55510;49.560;19.090;2023-02-11T15:48:55;97536.00;;;-0.48;90.12
68508;BME280;55510;49.560;19.090;2023-02-11T15:51:56;97543.84;;;-0.48;90.53
68508;BME280;55510;49.560;19.090;2023-02-11T15:54:58;97539.75;;;-0.50;91.13
68508;BME280;55510;49.560;19.090;2023-02-11T15:58:01;97536.34;;;-0.61;92.69
68508;BME280;55510;49.560;19.090;2023-02-11T16:01:02;97533.78;;;-0.70;93.97
68508;BME280;55510;49.560;19.090;2023-02-11T16:04:04;97531.44;;;-0.74;94.63
68508;BME280;55510;49.560;19.090;2023-02-11T16:07:04;97539.28;;;-0.74;94.67
68508;BME280;55510;49.560;19.090;2023-02-11T16:10:26;97546.16;;;-0.73;95.57
68508;BME280;55510;49.560;19.090;2023-02-11T16:13:30;97558.25;;;-0.71;95.77
68508;BME280;55510;49.560;19.090;2023-02-11T16:16:33;97559.66;;;-0.77;96.73
68508;BME280;55510;49.560;19.090;2023-02-11T16:19:35;97550.31;;;-0.80;96.82
68508;BME280;55510;49.560;19.090;2023-02-11T16:22:36;97551.41;;;-0.82;97.42
68508;BME280;55510;49.560;19.090;2023-02-11T16:25:41;97555.44;;;-0.88;97.67
68508;BME280;55510;49.560;19.090;2023-02-11T16:28:42;97550.22;;;-0.88;98.23
68508;BME280;55510;49.560;19.090;2023-02-11T16:31:44;97554.72;;;-0.90;98.73
68508;BME280;55510;49.560;19.090;2023-02-11T16:34:47;97547.63;;;-0.98;99.39
68508;BME280;55510;49.560;19.090;2023-02-11T16:37:47;97552.84;;;-0.98;99.59
68508;BME280;55510;49.560;19.090;2023-02-11T16:40:48;97560.53;;;-0.96;100.00
68508;BME280;55510;49.560;19.090;2023-02-11T16:43:49;97565.47;;;-0.93;100.00
68508;BME280;55510;49.560;19.090;2023-02-11T16:46:51;97560.78;;;-0.90;100.00
68508;BME280;55510;49.560;19.090;2023-02-11T16:49:53;97569.44;;;-0.89;100.00
68508;BME280;55510;49.560;19.090;2023-02-11T16:52:54;97569.88;;;-0.94;100.00
68508;BME280;55510;49.560;19.090;2023-02-11T16:55:55;97572.91;;;-0.98;100.00
68508;BME280;55510;49.560;19.090;2023-02-11T16:58:56;97566.72;;;-0.97;100.00
68508;BME280;55510;49.560;19.090;2023-02-11T17:01:57;97557.78;;;-0.95;100.00
68508;BME280;55510;49.560;19.090;2023-02-11T17:05:00;97556.81;;;-0.94;100.00
68508;BME280;55510;49.560;19.090;2023-02-11T17:08:01;97553.06;;;-0.91;100.00
68508;BME280;55510;49.560;19.090;2023-02-11T17:11:03;97562.16;;;-0.85;100.00
68508;BME280;55510;49.560;19.090;2023-02-11T17:14:03;97555.28;;;-0.86;100.00
68508;BME280;55510;49.560;19.090;2023-02-11T17:17:04;97556.13;;;-0.86;100.00
68508;BME280;55510;49.560;19.090;2023-02-11T17:20:05;97556.22;;;-0.78;100.00
68508;BME280;55510;49.560;19.090;2023-02-11T17:23:08;97555.78;;;-0.73;100.00
68508;BME280;55510;49.560;19.090;2023-02-11T17:26:08;97554.69;;;-0.70;100.00
68508;BME280;55510;49.560;19.090;2023-02-11T17:29:14;97560.44;;;-0.67;100.00
68508;BME280;55510;49.560;19.090;2023-02-11T17:32:15;97559.91;;;-0.70;100.00
68508;BME280;55510;49.560;19.090;2023-02-11T17:35:16;97569.97;;;-0.76;100.00
68508;BME280;55510;49.560;19.090;2023-02-11T17:38:16;97567.66;;;-0.79;100.00
68508;BME280;55510;49.560;19.090;2023-02-11T17:41:17;97571.50;;;-0.83;100.00
68508;BME280;55510;49.560;19.090;2023-02-11T17:44:18;97566.13;;;-0.81;100.00
68508;BME280;55510;49.560;19.090;2023-02-11T17:47:19;97565.16;;;-0.80;100.00
68508;BME280;55510;49.560;19.090;2023-02-11T17:50:19;97561.44;;;-0.78;100.00
68508;BME280;55510;49.560;19.090;2023-02-11T17:53:21;97566.53;;;-0.76;100.00
68508;BME280;55510;49.560;19.090;2023-02-11T17:56:22;97561.44;;;-0.78;100.00
68508;BME280;55510;49.560;19.090;2023-02-11T17:59:23;97566.69;;;-0.78;100.00